sensor_id;sensor_type;location;lat;lon;timestamp;P1;durP1;ratioP1;P2;durP2;ratioP2
16892;SDS011;8563;52.242;9.098;2023-06-10T00:01:52;5.53;;;3.95;;
16892;SDS011;8563;52.242;9.098;2023-06-10T00:04:28;5.50;;;3.90;;
16892;SDS011;8563;52.242;9.098;2023-06-10T00:07:00;6.85;;;4.05;;
16892;SDS011;8563;52.242;9.098;2023-06-10T00:09:34;5.72;;;3.92;;
16892;SDS011;8563;52.242;9.098;2023-06-10T00:12:08;4.57;;;3.70;;
16892;SDS011;8563;52.242;9.098;2023-06-10T00:14:42;10.20;;;4.05;;
16892;SDS011;8563;52.242;9.098;2023-06-10T00:17:14;6.45;;;3.92;;
16892;SDS011;8563;52.242;9.098;2023-06-10T00:19:47;6.32;;;3.65;;
16892;SDS011;8563;52.242;9.098;2023-06-10T00:22:20;6.25;;;3.67;;
16892;SDS011;8563;52.242;9.098;2023-06-10T00:24:54;6.22;;;3.45;;
16892;SDS011;8563;52.242;9.098;2023-06-10T00:27:27;6.43;;;3.63;;
16892;SDS011;8563;52.242;9.098;2023-06-10T00:30:07;6.90;;;3.63;;
16892;SDS011;8563;52.242;9.098;2023-06-10T00:32:40;5.88;;;3.95;;
16892;SDS011;8563;52.242;9.098;2023-06-10T00:35:12;7.03;;;3.90;;
16892;SDS011;8563;52.242;9.098;2023-06-10T00:37:45;5.10;;;3.28;;
16892;SDS011;8563;52.242;9.098;2023-06-10T00:40:19;5.90;;;3.80;;
16892;SDS011;8563;52.242;9.098;2023-06-10T00:42:51;6.18;;;4.00;;
16892;SDS011;8563;52.242;9.098;2023-06-10T00:45:27;4.22;;;3.67;;
16892;SDS011;8563;52.242;9.098;2023-06-10T00:47:59;6.13;;;3.80;;
16892;SDS011;8563;52.242;9.098;2023-06-10T00:50:32;4.38;;;3.85;;
16892;SDS011;8563;52.242;9.098;2023-06-10T00:53:05;6.22;;;3.63;;
16892;SDS011;8563;52.242;9.098;2023-06-10T00:55:38;3.95;;;3.55;;
16892;SDS011;8563;52.242;9.098;2023-06-10T00:58:13;4.05;;;3.60;;
16892;SDS011;8563;52.242;9.098;2023-06-10T01:00:47;8.85;;;4.00;;
16892;SDS011;8563;52.242;9.098;2023-06-10T01:03:20;3.90;;;3.50;;
16892;SDS011;8563;52.242;9.098;2023-06-10T01:05:53;4.68;;;3.25;;
16892;SDS011;8563;52.242;9.098;2023-06-10T01:08:32;4.35;;;3.35;;
16892;SDS011;8563;52.242;9.098;2023-06-10T01:11:07;3.80;;;3.20;;
16892;SDS011;8563;52.242;9.098;2023-06-10T01:13:41;4.20;;;3.40;;
16892;SDS011;8563;52.242;9.098;2023-06-10T01:16:15;4.07;;;3.33;;
16892;SDS011;8563;52.242;9.098;2023-06-10T01:18:47;3.10;;;2.77;;
16892;SDS011;8563;52.242;9.098;2023-06-10T01:21:21;5.93;;;3.07;;
16892;SDS011;8563;52.242;9.098;2023-06-10T01:23:54;5.30;;;3.10;;
16892;SDS011;8563;52.242;9.098;2023-06-10T01:26:28;4.07;;;3.10;;
16892;SDS011;8563;52.242;9.098;2023-06-10T01:29:03;4.97;;;3.30;;
16892;SDS011;8563;52.242;9.098;2023-06-10T01:31:41;6.97;;;2.87;;
16892;SDS011;8563;52.242;9.098;2023-06-10T01:34:17;4.23;;;2.90;;
16892;SDS011;8563;52.242;9.098;2023-06-10T01:36:51;3.93;;;3.17;;
16892;SDS011;8563;52.242;9.098;2023-06-10T01:39:24;4.23;;;3.37;;
16892;SDS011;8563;52.242;9.098;2023-06-10T01:41:57;4.97;;;3.08;;
16892;SDS011;8563;52.242;9.098;2023-06-10T01:44:30;5.33;;;3.10;;
16892;SDS011;8563;52.242;9.098;2023-06-10T01:47:02;7.90;;;3.27;;
16892;SDS011;8563;52.242;9.098;2023-06-10T01:49:35;3.70;;;3.20;;
16892;SDS011;8563;52.242;9.098;2023-06-10T01:52:08;3.70;;;2.87;;
16892;SDS011;8563;52.242;9.098;2023-06-10T01:54:41;3.93;;;3.07;;
16892;SDS011;8563;52.242;9.098;2023-06-10T01:57:14;5.33;;;3.20;;
16892;SDS011;8563;52.242;9.098;2023-06-10T01:59:46;6.00;;;3.73;;
16892;SDS011;8563;52.242;9.098;2023-06-10T02:02:19;6.00;;;3.50;;
16892;SDS011;8563;52.242;9.098;2023-06-10T02:04:52;4.73;;;3.27;;
16892;SDS011;8563;52.242;9.098;2023-06-10T02:07:26;5.30;;;3.33;;
16892;SDS011;8563;52.242;9.098;2023-06-10T02:09:59;4.50;;;3.07;;
16892;SDS011;8563;52.242;9.098;2023-06-10T02:12:33;4.23;;;3.37;;
16892;SDS011;8563;52.242;9.098;2023-06-10T02:15:05;4.93;;;3.30;;
16892;SDS011;8563;52.242;9.098;2023-06-10T02:17:38;4.13;;;3.40;;
16892;SDS011;8563;52.242;9.098;2023-06-10T02:20:11;3.50;;;3.10;;
16892;SDS011;8563;52.242;9.098;2023-06-10T02:22:45;3.60;;;3.30;;
16892;SDS011;8563;52.242;9.098;2023-06-10T02:25:17;4.93;;;3.47;;
16892;SDS011;8563;52.242;9.098;2023-06-10T02:27:50;4.30;;;3.10;;
16892;SDS011;8563;52.242;9.098;2023-06-10T02:30:22;4.80;;;3.13;;
16892;SDS011;8563;52.242;9.098;2023-06-10T02:32:55;6.70;;;3.50;;
16892;SDS011;8563;52.242;9.098;2023-06-10T02:35:30;4.07;;;3.00;;
16892;SDS011;8563;52.242;9.098;2023-06-10T02:38:03;5.00;;;3.00;;
16892;SDS011;8563;52.242;9.098;2023-06-10T02:40:37;8.07;;;3.27;;
16892;SDS011;8563;52.242;9.098;2023-06-10T02:43:10;5.13;;;3.30;;
16892;SDS011;8563;52.242;9.098;2023-06-10T02:45:43;3.77;;;3.23;;
16892;SDS011;8563;52.242;9.098;2023-06-10T02:48:15;3.90;;;3.17;;
16892;SDS011;8563;52.242;9.098;2023-06-10T02:50:48;5.17;;;3.57;;
16892;SDS011;8563;52.242;9.098;2023-06-10T02:53:28;5.53;;;3.30;;
16892;SDS011;8563;52.242;9.098;2023-06-10T02:56:08;5.07;;;3.23;;
16892;SDS011;8563;52.242;9.098;2023-06-10T02:58:40;3.63;;;3.17;;
16892;SDS011;8563;52.242;9.098;2023-06-10T03:01:14;5.37;;;2.93;;
16892;SDS011;8563;52.242;9.098;2023-06-10T03:04:03;5.23;;;3.20;;
16892;SDS011;8563;52.242;9.098;2023-06-10T03:06:37;4.17;;;3.27;;
16892;SDS011;8563;52.242;9.098;2023-06-10T03:09:22;3.73;;;2.87;;
16892;SDS011;8563;52.242;9.098;2023-06-10T03:11:58;4.93;;;3.37;;
16892;SDS011;8563;52.242;9.098;2023-06-10T03:14:35;5.40;;;3.43;;
16892;SDS011;8563;52.242;9.098;2023-06-10T03:17:09;6.10;;;3.50;;
16892;SDS011;8563;52.242;9.098;2023-06-10T03:19:44;6.93;;;3.70;;
16892;SDS011;8563;52.242;9.098;2023-06-10T03:22:17;4.73;;;3.57;;
16892;SDS011;8563;52.242;9.098;2023-06-10T03:25:09;3.93;;;3.10;;
16892;SDS011;8563;52.242;9.098;2023-06-10T03:27:46;5.87;;;3.83;;
16892;SDS011;8563;52.242;9.098;2023-06-10T03:30:18;5.20;;;3.23;;
16892;SDS011;8563;52.242;9.098;2023-06-10T03:32:51;5.50;;;3.40;;
16892;SDS011;8563;52.242;9.098;2023-06-10T03:35:26;4.37;;;3.63;;
16892;SDS011;8563;52.242;9.098;2023-06-10T03:37:59;4.80;;;3.50;;
16892;SDS011;8563;52.242;9.098;2023-06-10T03:40:33;5.23;;;3.80;;
16892;SDS011;8563;52.242;9.098;2023-06-10T03:43:06;4.17;;;3.70;;
16892;SDS011;8563;52.242;9.098;2023-06-10T03:45:39;4.50;;;3.33;;
16892;SDS011;8563;52.242;9.098;2023-06-10T03:48:13;4.77;;;3.50;;
16892;SDS011;8563;52.242;9.098;2023-06-10T03:50:52;6.20;;;4.00;;
16892;SDS011;8563;52.242;9.098;2023-06-10T03:53:26;6.30;;;3.60;;
16892;SDS011;8563;52.242;9.098;2023-06-10T03:55:59;7.00;;;3.83;;
16892;SDS011;8563;52.242;9.098;2023-06-10T03:58:33;6.57;;;3.67;;
16892;SDS011;8563;52.242;9.098;2023-06-10T04:01:06;4.23;;;3.33;;
16892;SDS011;8563;52.242;9.098;2023-06-10T04:03:40;5.83;;;3.50;;
16892;SDS011;8563;52.242;9.098;2023-06-10T04:06:13;6.37;;;3.60;;
16892;SDS011;8563;52.242;9.098;2023-06-10T04:08:46;4.78;;;3.25;;
16892;SDS011;8563;52.242;9.098;2023-06-10T04:11:20;4.67;;;3.47;;
16892;SDS011;8563;52.242;9.098;2023-06-10T04:13:54;7.53;;;3.60;;
16892;SDS011;8563;52.242;9.098;2023-06-10T04:16:26;6.20;;;3.72;;
16892;SDS011;8563;52.242;9.098;2023-06-10T04:18:59;6.22;;;3.60;;
16892;SDS011;8563;52.242;9.098;2023-06-10T04:21:32;4.53;;;2.90;;
16892;SDS011;8563;52.242;9.098;2023-06-10T04:24:06;4.95;;;3.42;;
16892;SDS011;8563;52.242;9.098;2023-06-10T04:26:40;5.00;;;3.65;;
16892;SDS011;8563;52.242;9.098;2023-06-10T04:29:12;7.97;;;3.85;;
16892;SDS011;8563;52.242;9.098;2023-06-10T04:31:45;5.75;;;3.60;;
16892;SDS011;8563;52.242;9.098;2023-06-10T04:34:19;5.88;;;3.60;;
16892;SDS011;8563;52.242;9.098;2023-06-10T04:36:51;6.35;;;3.50;;
16892;SDS011;8563;52.242;9.098;2023-06-10T04:39:24;5.82;;;3.63;;
16892;SDS011;8563;52.242;9.098;2023-06-10T04:41:59;8.20;;;3.80;;
16892;SDS011;8563;52.242;9.098;2023-06-10T04:44:33;4.72;;;3.40;;
16892;SDS011;8563;52.242;9.098;2023-06-10T04:47:05;6.82;;;3.55;;
16892;SDS011;8563;52.242;9.098;2023-06-10T04:49:39;4.38;;;3.30;;
16892;SDS011;8563;52.242;9.098;2023-06-10T04:52:11;4.15;;;3.47;;
16892;SDS011;8563;52.242;9.098;2023-06-10T04:54:45;6.20;;;3.53;;
16892;SDS011;8563;52.242;9.098;2023-06-10T04:57:20;5.80;;;3.58;;
16892;SDS011;8563;52.242;9.098;2023-06-10T04:59:52;4.05;;;3.60;;
16892;SDS011;8563;52.242;9.098;2023-06-10T05:02:25;6.07;;;3.58;;
16892;SDS011;8563;52.242;9.098;2023-06-10T05:04:57;6.63;;;3.83;;
16892;SDS011;8563;52.242;9.098;2023-06-10T05:07:29;7.68;;;3.58;;
16892;SDS011;8563;52.242;9.098;2023-06-10T05:10:02;6.20;;;3.17;;
16892;SDS011;8563;52.242;9.098;2023-06-10T05:12:36;7.45;;;3.58;;
16892;SDS011;8563;52.242;9.098;2023-06-10T05:15:09;6.50;;;3.88;;
16892;SDS011;8563;52.242;9.098;2023-06-10T05:17:41;5.57;;;3.65;;
16892;SDS011;8563;52.242;9.098;2023-06-10T05:20:14;4.53;;;3.90;;
16892;SDS011;8563;52.242;9.098;2023-06-10T05:22:47;4.80;;;3.70;;
16892;SDS011;8563;52.242;9.098;2023-06-10T05:25:19;4.40;;;3.17;;
16892;SDS011;8563;52.242;9.098;2023-06-10T05:27:53;5.35;;;3.80;;
16892;SDS011;8563;52.242;9.098;2023-06-10T05:30:25;8.07;;;3.90;;
16892;SDS011;8563;52.242;9.098;2023-06-10T05:32:58;5.82;;;3.55;;
16892;SDS011;8563;52.242;9.098;2023-06-10T05:35:30;6.75;;;3.83;;
16892;SDS011;8563;52.242;9.098;2023-06-10T05:38:03;5.05;;;3.97;;
16892;SDS011;8563;52.242;9.098;2023-06-10T05:40:35;7.10;;;3.90;;
16892;SDS011;8563;52.242;9.098;2023-06-10T05:43:09;8.70;;;4.13;;
16892;SDS011;8563;52.242;9.098;2023-06-10T05:45:42;8.18;;;3.90;;
16892;SDS011;8563;52.242;9.098;2023-06-10T05:48:14;6.55;;;4.60;;
16892;SDS011;8563;52.242;9.098;2023-06-10T05:50:47;8.65;;;4.85;;
16892;SDS011;8563;52.242;9.098;2023-06-10T05:53:19;7.43;;;4.18;;
16892;SDS011;8563;52.242;9.098;2023-06-10T05:55:52;6.95;;;4.40;;
16892;SDS011;8563;52.242;9.098;2023-06-10T05:58:28;8.90;;;4.95;;
16892;SDS011;8563;52.242;9.098;2023-06-10T06:01:01;6.30;;;4.35;;
16892;SDS011;8563;52.242;9.098;2023-06-10T06:03:33;8.25;;;4.15;;
16892;SDS011;8563;52.242;9.098;2023-06-10T06:06:06;6.72;;;4.38;;
16892;SDS011;8563;52.242;9.098;2023-06-10T06:08:38;8.40;;;5.07;;
16892;SDS011;8563;52.242;9.098;2023-06-10T06:11:11;6.45;;;3.95;;
16892;SDS011;8563;52.242;9.098;2023-06-10T06:13:45;5.50;;;4.35;;
16892;SDS011;8563;52.242;9.098;2023-06-10T06:16:18;7.57;;;4.65;;
16892;SDS011;8563;52.242;9.098;2023-06-10T06:18:50;8.52;;;4.15;;
16892;SDS011;8563;52.242;9.098;2023-06-10T06:21:23;7.75;;;4.47;;
16892;SDS011;8563;52.242;9.098;2023-06-10T06:23:56;6.40;;;4.28;;
16892;SDS011;8563;52.242;9.098;2023-06-10T06:26:28;5.95;;;4.13;;
16892;SDS011;8563;52.242;9.098;2023-06-10T06:29:02;5.40;;;4.18;;
16892;SDS011;8563;52.242;9.098;2023-06-10T06:31:34;6.07;;;4.20;;
16892;SDS011;8563;52.242;9.098;2023-06-10T06:34:07;6.78;;;4.07;;
16892;SDS011;8563;52.242;9.098;2023-06-10T06:36:40;6.93;;;4.68;;
16892;SDS011;8563;52.242;9.098;2023-06-10T06:39:12;6.47;;;4.50;;
16892;SDS011;8563;52.242;9.098;2023-06-10T06:41:46;10.70;;;4.97;;
16892;SDS011;8563;52.242;9.098;2023-06-10T06:44:19;8.18;;;5.25;;
16892;SDS011;8563;52.242;9.098;2023-06-10T06:46:57;7.53;;;4.85;;
16892;SDS011;8563;52.242;9.098;2023-06-10T06:49:29;7.32;;;5.22;;
16892;SDS011;8563;52.242;9.098;2023-06-10T06:52:02;8.77;;;5.95;;
16892;SDS011;8563;52.242;9.098;2023-06-10T06:54:35;8.38;;;6.00;;
16892;SDS011;8563;52.242;9.098;2023-06-10T06:57:07;7.97;;;5.20;;
16892;SDS011;8563;52.242;9.098;2023-06-10T06:59:41;9.20;;;5.88;;
16892;SDS011;8563;52.242;9.098;2023-06-10T07:02:13;7.75;;;5.88;;
16892;SDS011;8563;52.242;9.098;2023-06-10T07:04:45;6.78;;;5.85;;
16892;SDS011;8563;52.242;9.098;2023-06-10T07:07:19;8.70;;;6.05;;
16892;SDS011;8563;52.242;9.098;2023-06-10T07:09:52;9.65;;;5.97;;
16892;SDS011;8563;52.242;9.098;2023-06-10T07:12:24;9.85;;;6.45;;
16892;SDS011;8563;52.242;9.098;2023-06-10T07:14:58;7.47;;;5.97;;
16892;SDS011;8563;52.242;9.098;2023-06-10T07:17:30;7.88;;;6.63;;
16892;SDS011;8563;52.242;9.098;2023-06-10T07:20:06;9.80;;;6.65;;
16892;SDS011;8563;52.242;9.098;2023-06-10T07:22:38;7.82;;;5.63;;
16892;SDS011;8563;52.242;9.098;2023-06-10T07:25:11;7.57;;;5.88;;
16892;SDS011;8563;52.242;9.098;2023-06-10T07:27:43;7.30;;;5.82;;
16892;SDS011;8563;52.242;9.098;2023-06-10T07:30:17;10.13;;;5.82;;
16892;SDS011;8563;52.242;9.098;2023-06-10T07:32:50;6.93;;;5.50;;
16892;SDS011;8563;52.242;9.098;2023-06-10T07:35:23;7.70;;;5.90;;
16892;SDS011;8563;52.242;9.098;2023-06-10T07:37:55;8.93;;;6.40;;
16892;SDS011;8563;52.242;9.098;2023-06-10T07:40:28;10.38;;;5.95;;
16892;SDS011;8563;52.242;9.098;2023-06-10T07:43:00;11.40;;;6.30;;
16892;SDS011;8563;52.242;9.098;2023-06-10T07:45:34;8.93;;;6.10;;
16892;SDS011;8563;52.242;9.098;2023-06-10T07:48:07;8.30;;;5.72;;
16892;SDS011;8563;52.242;9.098;2023-06-10T07:50:39;6.25;;;5.60;;
16892;SDS011;8563;52.242;9.098;2023-06-10T07:53:11;7.15;;;5.47;;
16892;SDS011;8563;52.242;9.098;2023-06-10T07:55:44;6.85;;;5.78;;
16892;SDS011;8563;52.242;9.098;2023-06-10T07:58:16;7.80;;;5.40;;
16892;SDS011;8563;52.242;9.098;2023-06-10T08:00:50;11.60;;;6.28;;
16892;SDS011;8563;52.242;9.098;2023-06-10T08:03:23;9.93;;;6.00;;
16892;SDS011;8563;52.242;9.098;2023-06-10T08:05:55;9.80;;;5.72;;
16892;SDS011;8563;52.242;9.098;2023-06-10T08:08:28;10.07;;;5.82;;
16892;SDS011;8563;52.242;9.098;2023-06-10T08:11:00;7.95;;;5.68;;
16892;SDS011;8563;52.242;9.098;2023-06-10T08:13:32;10.20;;;6.00;;
16892;SDS011;8563;52.242;9.098;2023-06-10T08:16:06;7.15;;;5.50;;
16892;SDS011;8563;52.242;9.098;2023-06-10T08:18:39;9.40;;;5.93;;
16892;SDS011;8563;52.242;9.098;2023-06-10T08:21:11;6.85;;;5.10;;
16892;SDS011;8563;52.242;9.098;2023-06-10T08:23:43;10.55;;;6.13;;
16892;SDS011;8563;52.242;9.098;2023-06-10T08:26:16;9.43;;;5.70;;
16892;SDS011;8563;52.242;9.098;2023-06-10T08:28:48;11.82;;;5.65;;
16892;SDS011;8563;52.242;9.098;2023-06-10T08:31:22;10.95;;;5.90;;
16892;SDS011;8563;52.242;9.098;2023-06-10T08:33:54;6.85;;;4.68;;
16892;SDS011;8563;52.242;9.098;2023-06-10T08:36:27;9.23;;;5.53;;
16892;SDS011;8563;52.242;9.098;2023-06-10T08:38:59;8.70;;;5.32;;
16892;SDS011;8563;52.242;9.098;2023-06-10T08:41:33;10.05;;;5.70;;
16892;SDS011;8563;52.242;9.098;2023-06-10T08:44:08;8.98;;;5.70;;
16892;SDS011;8563;52.242;9.098;2023-06-10T08:46:43;8.65;;;5.47;;
16892;SDS011;8563;52.242;9.098;2023-06-10T08:49:18;11.80;;;5.13;;
16892;SDS011;8563;52.242;9.098;2023-06-10T08:51:51;10.90;;;5.32;;
16892;SDS011;8563;52.242;9.098;2023-06-10T08:54:27;9.93;;;5.43;;
16892;SDS011;8563;52.242;9.098;2023-06-10T08:57:00;7.28;;;4.60;;
16892;SDS011;8563;52.242;9.098;2023-06-10T08:59:33;6.60;;;4.55;;
16892;SDS011;8563;52.242;9.098;2023-06-10T09:02:07;7.72;;;5.20;;
16892;SDS011;8563;52.242;9.098;2023-06-10T09:04:41;6.78;;;4.80;;
16892;SDS011;8563;52.242;9.098;2023-06-10T09:07:15;8.48;;;5.05;;
16892;SDS011;8563;52.242;9.098;2023-06-10T09:09:48;8.20;;;4.90;;
16892;SDS011;8563;52.242;9.098;2023-06-10T09:12:23;7.05;;;4.30;;
16892;SDS011;8563;52.242;9.098;2023-06-10T09:14:56;6.20;;;4.60;;
16892;SDS011;8563;52.242;9.098;2023-06-10T09:17:30;8.35;;;5.10;;
16892;SDS011;8563;52.242;9.098;2023-06-10T09:20:03;6.60;;;3.97;;
16892;SDS011;8563;52.242;9.098;2023-06-10T09:22:35;9.75;;;4.35;;
16892;SDS011;8563;52.242;9.098;2023-06-10T09:25:08;9.35;;;4.50;;
16892;SDS011;8563;52.242;9.098;2023-06-10T09:27:44;9.55;;;4.30;;
16892;SDS011;8563;52.242;9.098;2023-06-10T09:30:26;6.63;;;4.57;;
16892;SDS011;8563;52.242;9.098;2023-06-10T09:33:03;6.35;;;4.60;;
16892;SDS011;8563;52.242;9.098;2023-06-10T09:35:35;7.20;;;4.22;;
16892;SDS011;8563;52.242;9.098;2023-06-10T09:38:07;8.68;;;4.30;;
16892;SDS011;8563;52.242;9.098;2023-06-10T09:40:48;6.03;;;4.47;;
16892;SDS011;8563;52.242;9.098;2023-06-10T09:43:20;6.55;;;4.53;;
16892;SDS011;8563;52.242;9.098;2023-06-10T09:45:53;6.13;;;4.28;;
16892;SDS011;8563;52.242;9.098;2023-06-10T09:48:30;7.22;;;5.00;;
16892;SDS011;8563;52.242;9.098;2023-06-10T09:51:08;5.97;;;4.40;;
16892;SDS011;8563;52.242;9.098;2023-06-10T09:53:41;10.13;;;4.07;;
16892;SDS011;8563;52.242;9.098;2023-06-10T09:56:14;6.07;;;4.32;;
16892;SDS011;8563;52.242;9.098;2023-06-10T09:58:46;6.20;;;4.43;;
16892;SDS011;8563;52.242;9.098;2023-06-10T10:01:18;5.30;;;3.90;;
16892;SDS011;8563;52.242;9.098;2023-06-10T10:03:52;5.50;;;4.15;;
16892;SDS011;8563;52.242;9.098;2023-06-10T10:06:25;6.75;;;4.38;;
16892;SDS011;8563;52.242;9.098;2023-06-10T10:08:57;9.15;;;3.85;;
16892;SDS011;8563;52.242;9.098;2023-06-10T10:11:29;5.40;;;4.10;;
16892;SDS011;8563;52.242;9.098;2023-06-10T10:14:03;6.80;;;4.25;;
16892;SDS011;8563;52.242;9.098;2023-06-10T10:16:37;5.85;;;4.15;;
16892;SDS011;8563;52.242;9.098;2023-06-10T10:19:14;6.32;;;3.85;;
16892;SDS011;8563;52.242;9.098;2023-06-10T10:21:49;5.93;;;3.90;;
16892;SDS011;8563;52.242;9.098;2023-06-10T10:24:23;5.80;;;3.85;;
16892;SDS011;8563;52.242;9.098;2023-06-10T10:26:57;7.63;;;3.60;;
16892;SDS011;8563;52.242;9.098;2023-06-10T10:29:31;7.65;;;3.80;;
16892;SDS011;8563;52.242;9.098;2023-06-10T10:32:06;8.85;;;3.95;;
16892;SDS011;8563;52.242;9.098;2023-06-10T10:34:41;5.80;;;3.80;;
16892;SDS011;8563;52.242;9.098;2023-06-10T10:37:16;4.63;;;3.80;;
16892;SDS011;8563;52.242;9.098;2023-06-10T10:39:49;7.05;;;3.42;;
16892;SDS011;8563;52.242;9.098;2023-06-10T10:42:22;6.00;;;3.60;;
16892;SDS011;8563;52.242;9.098;2023-06-10T10:44:55;6.03;;;4.00;;
16892;SDS011;8563;52.242;9.098;2023-06-10T10:47:27;5.38;;;3.10;;
16892;SDS011;8563;52.242;9.098;2023-06-10T10:50:03;6.40;;;3.97;;
16892;SDS011;8563;52.242;9.098;2023-06-10T10:52:54;7.45;;;3.63;;
16892;SDS011;8563;52.242;9.098;2023-06-10T10:55:27;4.90;;;3.58;;
16892;SDS011;8563;52.242;9.098;2023-06-10T10:58:02;8.82;;;3.50;;
16892;SDS011;8563;52.242;9.098;2023-06-10T11:00:35;7.43;;;3.60;;
16892;SDS011;8563;52.242;9.098;2023-06-10T11:03:09;4.38;;;3.10;;
16892;SDS011;8563;52.242;9.098;2023-06-10T11:05:46;6.32;;;3.60;;
16892;SDS011;8563;52.242;9.098;2023-06-10T11:11:17;3.92;;;3.38;;
16892;SDS011;8563;52.242;9.098;2023-06-10T11:14:06;5.82;;;3.60;;
16892;SDS011;8563;52.242;9.098;2023-06-10T11:16:41;5.22;;;3.55;;
16892;SDS011;8563;52.242;9.098;2023-06-10T11:22:03;6.88;;;3.60;;
16892;SDS011;8563;52.242;9.098;2023-06-10T11:24:35;5.47;;;3.85;;
16892;SDS011;8563;52.242;9.098;2023-06-10T11:27:14;3.95;;;3.35;;
16892;SDS011;8563;52.242;9.098;2023-06-10T11:29:57;5.45;;;3.83;;
16892;SDS011;8563;52.242;9.098;2023-06-10T11:32:31;3.60;;;3.30;;
16892;SDS011;8563;52.242;9.098;2023-06-10T11:35:03;10.00;;;3.88;;
16892;SDS011;8563;52.242;9.098;2023-06-10T11:37:38;5.00;;;3.60;;
16892;SDS011;8563;52.242;9.098;2023-06-10T11:40:11;6.15;;;3.90;;
16892;SDS011;8563;52.242;9.098;2023-06-10T11:42:43;4.50;;;3.45;;
16892;SDS011;8563;52.242;9.098;2023-06-10T11:45:17;6.72;;;4.10;;
16892;SDS011;8563;52.242;9.098;2023-06-10T11:47:55;5.47;;;3.80;;
16892;SDS011;8563;52.242;9.098;2023-06-10T11:50:29;7.55;;;3.95;;
16892;SDS011;8563;52.242;9.098;2023-06-10T11:53:03;3.97;;;3.55;;
16892;SDS011;8563;52.242;9.098;2023-06-10T11:55:42;6.35;;;3.80;;
16892;SDS011;8563;52.242;9.098;2023-06-10T11:58:15;5.40;;;3.78;;
16892;SDS011;8563;52.242;9.098;2023-06-10T12:00:48;5.38;;;3.90;;
16892;SDS011;8563;52.242;9.098;2023-06-10T12:03:20;7.82;;;4.43;;
16892;SDS011;8563;52.242;9.098;2023-06-10T12:05:56;5.13;;;3.90;;
16892;SDS011;8563;52.242;9.098;2023-06-10T12:08:31;5.10;;;3.55;;
16892;SDS011;8563;52.242;9.098;2023-06-10T12:11:03;5.30;;;3.38;;
16892;SDS011;8563;52.242;9.098;2023-06-10T12:13:36;5.05;;;3.95;;
16892;SDS011;8563;52.242;9.098;2023-06-10T12:16:09;6.75;;;4.10;;
16892;SDS011;8563;52.242;9.098;2023-06-10T12:18:42;8.00;;;4.30;;
16892;SDS011;8563;52.242;9.098;2023-06-10T12:21:18;5.32;;;3.90;;
16892;SDS011;8563;52.242;9.098;2023-06-10T12:24:03;7.38;;;4.65;;
16892;SDS011;8563;52.242;9.098;2023-06-10T12:26:36;4.57;;;3.53;;
16892;SDS011;8563;52.242;9.098;2023-06-10T12:29:18;6.78;;;3.63;;
16892;SDS011;8563;52.242;9.098;2023-06-10T12:31:53;7.07;;;4.20;;
16892;SDS011;8563;52.242;9.098;2023-06-10T12:34:30;5.35;;;3.83;;
16892;SDS011;8563;52.242;9.098;2023-06-10T12:37:02;4.85;;;4.30;;
16892;SDS011;8563;52.242;9.098;2023-06-10T12:39:37;5.80;;;4.00;;
16892;SDS011;8563;52.242;9.098;2023-06-10T12:42:11;4.53;;;4.13;;
16892;SDS011;8563;52.242;9.098;2023-06-10T12:44:44;4.60;;;4.20;;
16892;SDS011;8563;52.242;9.098;2023-06-10T12:47:16;4.50;;;4.00;;
16892;SDS011;8563;52.242;9.098;2023-06-10T12:49:48;9.52;;;4.38;;
16892;SDS011;8563;52.242;9.098;2023-06-10T12:52:21;5.18;;;4.45;;
16892;SDS011;8563;52.242;9.098;2023-06-10T12:54:55;10.95;;;4.55;;
16892;SDS011;8563;52.242;9.098;2023-06-10T12:57:28;7.30;;;4.35;;
16892;SDS011;8563;52.242;9.098;2023-06-10T13:00:01;6.18;;;4.63;;
16892;SDS011;8563;52.242;9.098;2023-06-10T13:02:38;4.93;;;4.45;;
16892;SDS011;8563;52.242;9.098;2023-06-10T13:05:11;8.85;;;4.55;;
16892;SDS011;8563;52.242;9.098;2023-06-10T13:07:44;7.85;;;4.90;;
16892;SDS011;8563;52.242;9.098;2023-06-10T13:10:18;5.15;;;4.60;;
16892;SDS011;8563;52.242;9.098;2023-06-10T13:12:51;4.95;;;4.45;;
16892;SDS011;8563;52.242;9.098;2023-06-10T13:15:24;5.70;;;4.50;;
16892;SDS011;8563;52.242;9.098;2023-06-10T13:17:57;5.55;;;4.57;;
16892;SDS011;8563;52.242;9.098;2023-06-10T13:20:30;5.00;;;4.50;;
16892;SDS011;8563;52.242;9.098;2023-06-10T13:23:03;5.05;;;4.60;;
16892;SDS011;8563;52.242;9.098;2023-06-10T13:25:37;5.93;;;4.63;;
16892;SDS011;8563;52.242;9.098;2023-06-10T13:28:10;7.35;;;4.60;;
16892;SDS011;8563;52.242;9.098;2023-06-10T13:30:43;5.22;;;4.70;;
16892;SDS011;8563;52.242;9.098;2023-06-10T13:33:15;7.57;;;5.15;;
16892;SDS011;8563;52.242;9.098;2023-06-10T13:35:48;5.07;;;4.53;;
16892;SDS011;8563;52.242;9.098;2023-06-10T13:38:20;9.07;;;4.90;;
16892;SDS011;8563;52.242;9.098;2023-06-10T13:40:54;9.27;;;4.70;;
16892;SDS011;8563;52.242;9.098;2023-06-10T13:43:26;7.20;;;5.00;;
16892;SDS011;8563;52.242;9.098;2023-06-10T13:45:59;6.05;;;4.85;;
16892;SDS011;8563;52.242;9.098;2023-06-10T13:48:32;5.53;;;5.03;;
16892;SDS011;8563;52.242;9.098;2023-06-10T13:51:05;5.57;;;5.03;;
16892;SDS011;8563;52.242;9.098;2023-06-10T13:53:39;6.25;;;5.10;;
16892;SDS011;8563;52.242;9.098;2023-06-10T13:56:13;6.78;;;4.88;;
16892;SDS011;8563;52.242;9.098;2023-06-10T13:58:45;5.88;;;5.00;;
16892;SDS011;8563;52.242;9.098;2023-06-10T14:01:18;9.55;;;5.25;;
16892;SDS011;8563;52.242;9.098;2023-06-10T14:03:51;7.60;;;4.97;;
16892;SDS011;8563;52.242;9.098;2023-06-10T14:06:23;6.97;;;4.40;;
16892;SDS011;8563;52.242;9.098;2023-06-10T14:08:55;8.65;;;5.20;;
16892;SDS011;8563;52.242;9.098;2023-06-10T14:11:30;5.68;;;5.07;;
16892;SDS011;8563;52.242;9.098;2023-06-10T14:14:03;5.82;;;5.18;;
16892;SDS011;8563;52.242;9.098;2023-06-10T14:16:35;6.68;;;5.45;;
16892;SDS011;8563;52.242;9.098;2023-06-10T14:19:08;6.63;;;4.75;;
16892;SDS011;8563;52.242;9.098;2023-06-10T14:21:40;6.78;;;4.93;;
16892;SDS011;8563;52.242;9.098;2023-06-10T14:24:12;6.90;;;5.00;;
16892;SDS011;8563;52.242;9.098;2023-06-10T14:26:47;5.95;;;5.00;;
16892;SDS011;8563;52.242;9.098;2023-06-10T14:29:19;7.43;;;4.90;;
16892;SDS011;8563;52.242;9.098;2023-06-10T14:31:52;6.38;;;5.18;;
16892;SDS011;8563;52.242;9.098;2023-06-10T14:34:24;7.60;;;4.80;;
16892;SDS011;8563;52.242;9.098;2023-06-10T14:37:00;5.45;;;4.93;;
16892;SDS011;8563;52.242;9.098;2023-06-10T14:39:33;6.28;;;5.00;;
16892;SDS011;8563;52.242;9.098;2023-06-10T14:42:08;5.93;;;5.25;;
16892;SDS011;8563;52.242;9.098;2023-06-10T14:44:40;7.57;;;4.82;;
16892;SDS011;8563;52.242;9.098;2023-06-10T14:47:13;6.43;;;4.53;;
16892;SDS011;8563;52.242;9.098;2023-06-10T14:49:46;6.50;;;5.30;;
16892;SDS011;8563;52.242;9.098;2023-06-10T14:52:18;5.07;;;4.60;;
16892;SDS011;8563;52.242;9.098;2023-06-10T14:54:51;8.65;;;4.60;;
16892;SDS011;8563;52.242;9.098;2023-06-10T14:57:24;5.43;;;4.93;;
16892;SDS011;8563;52.242;9.098;2023-06-10T14:59:57;7.75;;;5.18;;
16892;SDS011;8563;52.242;9.098;2023-06-10T15:02:29;6.35;;;5.75;;
16892;SDS011;8563;52.242;9.098;2023-06-10T15:05:02;5.88;;;4.75;;
16892;SDS011;8563;52.242;9.098;2023-06-10T15:07:34;5.20;;;4.70;;
16892;SDS011;8563;52.242;9.098;2023-06-10T15:10:07;6.68;;;4.70;;
16892;SDS011;8563;52.242;9.098;2023-06-10T15:12:41;5.70;;;4.65;;
16892;SDS011;8563;52.242;9.098;2023-06-10T15:15:13;6.70;;;5.10;;
16892;SDS011;8563;52.242;9.098;2023-06-10T15:17:46;5.47;;;4.72;;
16892;SDS011;8563;52.242;9.098;2023-06-10T15:20:18;4.82;;;4.30;;
16892;SDS011;8563;52.242;9.098;2023-06-10T15:22:51;8.75;;;4.70;;
16892;SDS011;8563;52.242;9.098;2023-06-10T15:25:24;6.78;;;4.28;;
16892;SDS011;8563;52.242;9.098;2023-06-10T15:27:58;7.05;;;4.55;;
16892;SDS011;8563;52.242;9.098;2023-06-10T15:30:30;6.60;;;4.82;;
16892;SDS011;8563;52.242;9.098;2023-06-10T15:33:03;5.95;;;4.57;;
16892;SDS011;8563;52.242;9.098;2023-06-10T15:35:36;7.30;;;4.20;;
16892;SDS011;8563;52.242;9.098;2023-06-10T15:38:09;6.53;;;4.45;;
16892;SDS011;8563;52.242;9.098;2023-06-10T15:40:41;7.30;;;4.50;;
16892;SDS011;8563;52.242;9.098;2023-06-10T15:43:15;5.28;;;4.75;;
16892;SDS011;8563;52.242;9.098;2023-06-10T15:45:48;6.95;;;4.93;;